sensor_id;sensor_type;location;lat;lon;timestamp;P1;durP1;ratioP1;P2;durP2;ratioP2
17369;SDS011;8802;52.402;4.920;2023-06-01T00:00:12;10.18;;;6.95;;
17369;SDS011;8802;52.402;4.920;2023-06-01T00:02:40;10.55;;;7.53;;
17369;SDS011;8802;52.402;4.920;2023-06-01T00:05:08;8.73;;;7.45;;
17369;SDS011;8802;52.402;4.920;2023-06-01T00:07:35;8.60;;;6.35;;
17369;SDS011;8802;52.402;4.920;2023-06-01T00:10:02;9.57;;;6.78;;
17369;SDS011;8802;52.402;4.920;2023-06-01T00:12:30;8.85;;;6.57;;
17369;SDS011;8802;52.402;4.920;2023-06-01T00:14:57;10.48;;;6.72;;
17369;SDS011;8802;52.402;4.920;2023-06-01T00:17:23;9.25;;;6.55;;
17369;SDS011;8802;52.402;4.920;2023-06-01T00:19:51;8.48;;;7.10;;
17369;SDS011;8802;52.402;4.920;2023-06-01T00:22:19;8.95;;;6.72;;
17369;SDS011;8802;52.402;4.920;2023-06-01T00:24:49;8.15;;;7.35;;
17369;SDS011;8802;52.402;4.920;2023-06-01T00:27:15;9.25;;;6.25;;
17369;SDS011;8802;52.402;4.920;2023-06-01T00:29:42;8.77;;;6.28;;
17369;SDS011;8802;52.402;4.920;2023-06-01T00:32:09;7.43;;;6.40;;
17369;SDS011;8802;52.402;4.920;2023-06-01T00:34:36;12.50;;;6.53;;
17369;SDS011;8802;52.402;4.920;2023-06-01T00:37:03;11.20;;;6.75;;
17369;SDS011;8802;52.402;4.920;2023-06-01T00:39:32;7.53;;;6.22;;
17369;SDS011;8802;52.402;4.920;2023-06-01T00:41:58;8.52;;;5.53;;
17369;SDS011;8802;52.402;4.920;2023-06-01T00:44:27;9.18;;;6.38;;
17369;SDS011;8802;52.402;4.920;2023-06-01T00:46:53;9.05;;;6.15;;
17369;SDS011;8802;52.402;4.920;2023-06-01T00:49:20;9.57;;;6.20;;
17369;SDS011;8802;52.402;4.920;2023-06-01T00:51:48;8.43;;;5.55;;
17369;SDS011;8802;52.402;4.920;2023-06-01T00:54:15;10.40;;;6.43;;
17369;SDS011;8802;52.402;4.920;2023-06-01T00:56:43;11.75;;;6.32;;
17369;SDS011;8802;52.402;4.920;2023-06-01T00:59:11;10.70;;;6.03;;
17369;SDS011;8802;52.402;4.920;2023-06-01T01:01:39;9.40;;;6.45;;
17369;SDS011;8802;52.402;4.920;2023-06-01T01:04:07;7.75;;;5.97;;
17369;SDS011;8802;52.402;4.920;2023-06-01T01:06:39;8.05;;;6.35;;
17369;SDS011;8802;52.402;4.920;2023-06-01T01:09:18;7.28;;;6.32;;
17369;SDS011;8802;52.402;4.920;2023-06-01T01:11:52;7.38;;;5.70;;
17369;SDS011;8802;52.402;4.920;2023-06-01T01:14:27;9.75;;;6.57;;
17369;SDS011;8802;52.402;4.920;2023-06-01T01:17:03;11.05;;;6.63;;
17369;SDS011;8802;52.402;4.920;2023-06-01T01:19:43;7.68;;;6.07;;
17369;SDS011;8802;52.402;4.920;2023-06-01T01:22:25;8.13;;;6.47;;
17369;SDS011;8802;52.402;4.920;2023-06-01T01:28:10;10.02;;;6.82;;
17369;SDS011;8802;52.402;4.920;2023-06-01T01:30:56;8.35;;;6.53;;
17369;SDS011;8802;52.402;4.920;2023-06-01T01:33:26;9.65;;;6.97;;
17369;SDS011;8802;52.402;4.920;2023-06-01T01:35:53;7.60;;;6.38;;
17369;SDS011;8802;52.402;4.920;2023-06-01T01:38:20;10.13;;;6.35;;
17369;SDS011;8802;52.402;4.920;2023-06-01T01:40:47;11.30;;;6.90;;
17369;SDS011;8802;52.402;4.920;2023-06-01T01:43:14;9.07;;;6.90;;
17369;SDS011;8802;52.402;4.920;2023-06-01T01:45:43;10.00;;;7.03;;
17369;SDS011;8802;52.402;4.920;2023-06-01T01:48:23;11.98;;;6.85;;
17369;SDS011;8802;52.402;4.920;2023-06-01T01:50:57;11.18;;;6.43;;
17369;SDS011;8802;52.402;4.920;2023-06-01T01:53:28;6.75;;;5.90;;
17369;SDS011;8802;52.402;4.920;2023-06-01T01:55:56;8.65;;;6.18;;
17369;SDS011;8802;52.402;4.920;2023-06-01T01:58:25;11.45;;;6.57;;
17369;SDS011;8802;52.402;4.920;2023-06-01T02:00:54;7.43;;;5.90;;
17369;SDS011;8802;52.402;4.920;2023-06-01T02:03:22;12.05;;;6.25;;
17369;SDS011;8802;52.402;4.920;2023-06-01T02:05:49;8.80;;;5.88;;
17369;SDS011;8802;52.402;4.920;2023-06-01T02:08:16;9.38;;;5.57;;
17369;SDS011;8802;52.402;4.920;2023-06-01T02:10:43;10.23;;;5.63;;
17369;SDS011;8802;52.402;4.920;2023-06-01T02:13:10;8.90;;;5.05;;
17369;SDS011;8802;52.402;4.920;2023-06-01T02:15:37;7.70;;;5.07;;
17369;SDS011;8802;52.402;4.920;2023-06-01T02:18:05;9.23;;;4.88;;
17369;SDS011;8802;52.402;4.920;2023-06-01T02:20:32;8.45;;;5.03;;
17369;SDS011;8802;52.402;4.920;2023-06-01T02:22:59;6.18;;;4.60;;
17369;SDS011;8802;52.402;4.920;2023-06-01T02:25:26;7.63;;;4.88;;
17369;SDS011;8802;52.402;4.920;2023-06-01T02:27:53;7.13;;;5.20;;
17369;SDS011;8802;52.402;4.920;2023-06-01T02:30:20;8.80;;;5.38;;
17369;SDS011;8802;52.402;4.920;2023-06-01T02:32:47;8.88;;;5.15;;
17369;SDS011;8802;52.402;4.920;2023-06-01T02:35:15;8.50;;;5.65;;
17369;SDS011;8802;52.402;4.920;2023-06-01T02:37:42;8.32;;;5.55;;
17369;SDS011;8802;52.402;4.920;2023-06-01T02:40:09;7.13;;;5.40;;
17369;SDS011;8802;52.402;4.920;2023-06-01T02:42:37;12.20;;;6.22;;
17369;SDS011;8802;52.402;4.920;2023-06-01T02:45:04;10.80;;;5.85;;
17369;SDS011;8802;52.402;4.920;2023-06-01T02:47:33;9.02;;;5.30;;
17369;SDS011;8802;52.402;4.920;2023-06-01T02:50:00;8.25;;;6.03;;
17369;SDS011;8802;52.402;4.920;2023-06-01T02:52:28;10.00;;;6.30;;
17369;SDS011;8802;52.402;4.920;2023-06-01T02:54:55;9.38;;;5.80;;
17369;SDS011;8802;52.402;4.920;2023-06-01T02:57:22;10.27;;;5.82;;
17369;SDS011;8802;52.402;4.920;2023-06-01T02:59:49;9.20;;;5.45;;
17369;SDS011;8802;52.402;4.920;2023-06-01T03:02:16;9.45;;;6.45;;
17369;SDS011;8802;52.402;4.920;2023-06-01T03:04:42;11.30;;;6.70;;
17369;SDS011;8802;52.402;4.920;2023-06-01T03:07:10;9.85;;;6.28;;
17369;SDS011;8802;52.402;4.920;2023-06-01T03:09:39;9.80;;;5.95;;
17369;SDS011;8802;52.402;4.920;2023-06-01T03:12:06;10.18;;;6.45;;
17369;SDS011;8802;52.402;4.920;2023-06-01T03:14:33;10.10;;;6.60;;
17369;SDS011;8802;52.402;4.920;2023-06-01T03:17:00;11.80;;;6.30;;
17369;SDS011;8802;52.402;4.920;2023-06-01T03:19:27;11.30;;;6.63;;
17369;SDS011;8802;52.402;4.920;2023-06-01T03:21:54;9.38;;;6.22;;
17369;SDS011;8802;52.402;4.920;2023-06-01T03:24:21;10.18;;;6.25;;
17369;SDS011;8802;52.402;4.920;2023-06-01T03:26:54;9.13;;;7.22;;
17369;SDS011;8802;52.402;4.920;2023-06-01T03:29:21;9.02;;;6.10;;
17369;SDS011;8802;52.402;4.920;2023-06-01T03:31:48;10.40;;;6.40;;
17369;SDS011;8802;52.402;4.920;2023-06-01T03:34:14;8.32;;;6.20;;
17369;SDS011;8802;52.402;4.920;2023-06-01T03:36:41;9.20;;;5.88;;
17369;SDS011;8802;52.402;4.920;2023-06-01T03:39:13;13.13;;;6.40;;
17369;SDS011;8802;52.402;4.920;2023-06-01T03:41:41;10.40;;;5.88;;
17369;SDS011;8802;52.402;4.920;2023-06-01T03:44:10;8.55;;;6.60;;
17369;SDS011;8802;52.402;4.920;2023-06-01T03:46:38;9.35;;;6.35;;
17369;SDS011;8802;52.402;4.920;2023-06-01T03:49:06;10.00;;;6.90;;
17369;SDS011;8802;52.402;4.920;2023-06-01T03:51:33;9.57;;;6.75;;
17369;SDS011;8802;52.402;4.920;2023-06-01T03:54:01;7.40;;;6.13;;
17369;SDS011;8802;52.402;4.920;2023-06-01T03:56:28;10.35;;;7.10;;
17369;SDS011;8802;52.402;4.920;2023-06-01T03:58:55;10.00;;;6.72;;
17369;SDS011;8802;52.402;4.920;2023-06-01T04:01:23;11.48;;;7.38;;
17369;SDS011;8802;52.402;4.920;2023-06-01T04:03:54;9.68;;;6.70;;
17369;SDS011;8802;52.402;4.920;2023-06-01T04:06:21;11.07;;;6.72;;
17369;SDS011;8802;52.402;4.920;2023-06-01T04:08:49;12.05;;;7.35;;
17369;SDS011;8802;52.402;4.920;2023-06-01T04:11:20;8.57;;;7.32;;
17369;SDS011;8802;52.402;4.920;2023-06-01T04:13:48;11.13;;;7.65;;
17369;SDS011;8802;52.402;4.920;2023-06-01T04:16:15;12.05;;;7.40;;
17369;SDS011;8802;52.402;4.920;2023-06-01T04:18:43;13.88;;;7.43;;
17369;SDS011;8802;52.402;4.920;2023-06-01T04:21:10;7.70;;;6.93;;
17369;SDS011;8802;52.402;4.920;2023-06-01T04:23:37;8.85;;;6.65;;
17369;SDS011;8802;52.402;4.920;2023-06-01T04:26:04;12.73;;;7.20;;
17369;SDS011;8802;52.402;4.920;2023-06-01T04:28:31;13.15;;;7.72;;
17369;SDS011;8802;52.402;4.920;2023-06-01T04:30:58;10.50;;;7.75;;
17369;SDS011;8802;52.402;4.920;2023-06-01T04:33:27;10.38;;;7.90;;
17369;SDS011;8802;52.402;4.920;2023-06-01T04:35:55;12.27;;;8.30;;
17369;SDS011;8802;52.402;4.920;2023-06-01T04:38:22;10.20;;;7.93;;
17369;SDS011;8802;52.402;4.920;2023-06-01T04:40:50;10.15;;;7.40;;
17369;SDS011;8802;52.402;4.920;2023-06-01T04:43:18;8.95;;;6.88;;
17369;SDS011;8802;52.402;4.920;2023-06-01T04:45:45;10.23;;;6.78;;
17369;SDS011;8802;52.402;4.920;2023-06-01T04:48:13;10.18;;;6.20;;
17369;SDS011;8802;52.402;4.920;2023-06-01T04:50:41;11.55;;;6.00;;
17369;SDS011;8802;52.402;4.920;2023-06-01T04:53:11;10.20;;;6.35;;
17369;SDS011;8802;52.402;4.920;2023-06-01T04:55:37;9.35;;;5.90;;
17369;SDS011;8802;52.402;4.920;2023-06-01T04:58:05;10.32;;;5.68;;
17369;SDS011;8802;52.402;4.920;2023-06-01T05:00:31;14.25;;;6.38;;
17369;SDS011;8802;52.402;4.920;2023-06-01T05:02:58;10.32;;;5.28;;
17369;SDS011;8802;52.402;4.920;2023-06-01T05:05:27;8.85;;;5.95;;
17369;SDS011;8802;52.402;4.920;2023-06-01T05:07:54;11.55;;;6.45;;
17369;SDS011;8802;52.402;4.920;2023-06-01T05:10:23;9.63;;;6.00;;
17369;SDS011;8802;52.402;4.920;2023-06-01T05:12:49;8.82;;;5.70;;
17369;SDS011;8802;52.402;4.920;2023-06-01T05:15:16;8.25;;;5.97;;
17369;SDS011;8802;52.402;4.920;2023-06-01T05:17:43;8.95;;;5.65;;
17369;SDS011;8802;52.402;4.920;2023-06-01T05:20:11;10.50;;;5.20;;
17369;SDS011;8802;52.402;4.920;2023-06-01T05:22:38;9.05;;;5.78;;
17369;SDS011;8802;52.402;4.920;2023-06-01T05:25:05;11.52;;;5.20;;
17369;SDS011;8802;52.402;4.920;2023-06-01T05:27:35;10.40;;;5.35;;
17369;SDS011;8802;52.402;4.920;2023-06-01T05:30:02;10.18;;;5.70;;
17369;SDS011;8802;52.402;4.920;2023-06-01T05:32:30;7.18;;;5.07;;
17369;SDS011;8802;52.402;4.920;2023-06-01T05:34:57;8.23;;;5.22;;
17369;SDS011;8802;52.402;4.920;2023-06-01T05:37:24;10.52;;;5.65;;
17369;SDS011;8802;52.402;4.920;2023-06-01T05:39:51;9.75;;;5.47;;
17369;SDS011;8802;52.402;4.920;2023-06-01T05:42:18;8.85;;;5.65;;
17369;SDS011;8802;52.402;4.920;2023-06-01T05:44:46;7.07;;;5.30;;
17369;SDS011;8802;52.402;4.920;2023-06-01T05:47:13;11.10;;;5.85;;
17369;SDS011;8802;52.402;4.920;2023-06-01T05:49:40;9.90;;;5.30;;
17369;SDS011;8802;52.402;4.920;2023-06-01T05:52:07;7.57;;;4.95;;
17369;SDS011;8802;52.402;4.920;2023-06-01T05:54:35;6.60;;;5.07;;
17369;SDS011;8802;52.402;4.920;2023-06-01T05:57:02;8.50;;;5.15;;
17369;SDS011;8802;52.402;4.920;2023-06-01T05:59:29;7.85;;;4.50;;
17369;SDS011;8802;52.402;4.920;2023-06-01T06:01:57;7.97;;;4.43;;
17369;SDS011;8802;52.402;4.920;2023-06-01T06:04:24;5.90;;;4.50;;
17369;SDS011;8802;52.402;4.920;2023-06-01T06:06:51;6.03;;;4.97;;
17369;SDS011;8802;52.402;4.920;2023-06-01T06:09:18;8.15;;;5.00;;
17369;SDS011;8802;52.402;4.920;2023-06-01T06:11:45;8.52;;;5.13;;
17369;SDS011;8802;52.402;4.920;2023-06-01T06:14:12;8.82;;;5.20;;
17369;SDS011;8802;52.402;4.920;2023-06-01T06:16:39;7.72;;;4.57;;
17369;SDS011;8802;52.402;4.920;2023-06-01T06:19:07;7.45;;;4.35;;
17369;SDS011;8802;52.402;4.920;2023-06-01T06:21:35;6.35;;;4.35;;
17369;SDS011;8802;52.402;4.920;2023-06-01T06:24:03;11.18;;;5.25;;
17369;SDS011;8802;52.402;4.920;2023-06-01T06:26:31;7.50;;;4.22;;
17369;SDS011;8802;52.402;4.920;2023-06-01T06:28:57;7.00;;;4.80;;
17369;SDS011;8802;52.402;4.920;2023-06-01T06:31:24;7.47;;;4.88;;
17369;SDS011;8802;52.402;4.920;2023-06-01T06:33:51;9.10;;;4.82;;
17369;SDS011;8802;52.402;4.920;2023-06-01T06:36:20;6.00;;;4.53;;
17369;SDS011;8802;52.402;4.920;2023-06-01T06:38:47;5.30;;;3.97;;
17369;SDS011;8802;52.402;4.920;2023-06-01T06:41:14;6.25;;;4.07;;
17369;SDS011;8802;52.402;4.920;2023-06-01T06:43:41;7.50;;;3.72;;
17369;SDS011;8802;52.402;4.920;2023-06-01T06:46:08;5.80;;;4.07;;
17369;SDS011;8802;52.402;4.920;2023-06-01T06:48:34;6.68;;;3.92;;
17369;SDS011;8802;52.402;4.920;2023-06-01T06:51:01;6.80;;;4.10;;
17369;SDS011;8802;52.402;4.920;2023-06-01T06:53:30;6.35;;;3.97;;
17369;SDS011;8802;52.402;4.920;2023-06-01T06:55:58;6.07;;;3.83;;
17369;SDS011;8802;52.402;4.920;2023-06-01T06:58:25;5.82;;;3.65;;
17369;SDS011;8802;52.402;4.920;2023-06-01T07:00:52;6.35;;;4.28;;
17369;SDS011;8802;52.402;4.920;2023-06-01T07:03:19;8.75;;;4.18;;
17369;SDS011;8802;52.402;4.920;2023-06-01T07:05:46;5.05;;;3.65;;
17369;SDS011;8802;52.402;4.920;2023-06-01T07:08:13;5.05;;;3.65;;
17369;SDS011;8802;52.402;4.920;2023-06-01T07:10:42;4.72;;;3.78;;
17369;SDS011;8802;52.402;4.920;2023-06-01T07:13:09;6.63;;;3.88;;
17369;SDS011;8802;52.402;4.920;2023-06-01T07:15:36;6.05;;;3.58;;
17369;SDS011;8802;52.402;4.920;2023-06-01T07:18:03;6.57;;;3.65;;
17369;SDS011;8802;52.402;4.920;2023-06-01T07:20:30;4.20;;;3.45;;
17369;SDS011;8802;52.402;4.920;2023-06-01T07:22:57;5.90;;;3.45;;
17369;SDS011;8802;52.402;4.920;2023-06-01T07:25:24;10.93;;;4.30;;
17369;SDS011;8802;52.402;4.920;2023-06-01T07:27:52;5.85;;;3.53;;
17369;SDS011;8802;52.402;4.920;2023-06-01T07:30:21;5.43;;;4.05;;
17369;SDS011;8802;52.402;4.920;2023-06-01T07:32:48;5.90;;;3.42;;
17369;SDS011;8802;52.402;4.920;2023-06-01T07:35:15;5.63;;;3.22;;
17369;SDS011;8802;52.402;4.920;2023-06-01T07:37:42;5.22;;;3.50;;
17369;SDS011;8802;52.402;4.920;2023-06-01T07:40:09;7.10;;;3.70;;
17369;SDS011;8802;52.402;4.920;2023-06-01T07:42:38;4.55;;;3.30;;
17369;SDS011;8802;52.402;4.920;2023-06-01T07:45:07;6.28;;;4.38;;
17369;SDS011;8802;52.402;4.920;2023-06-01T07:47:34;5.30;;;3.40;;
17369;SDS011;8802;52.402;4.920;2023-06-01T07:50:01;6.40;;;3.42;;
17369;SDS011;8802;52.402;4.920;2023-06-01T07:52:28;5.75;;;3.80;;
17369;SDS011;8802;52.402;4.920;2023-06-01T07:54:56;5.13;;;3.63;;
17369;SDS011;8802;52.402;4.920;2023-06-01T07:57:23;6.35;;;3.80;;
17369;SDS011;8802;52.402;4.920;2023-06-01T07:59:50;4.97;;;3.63;;
17369;SDS011;8802;52.402;4.920;2023-06-01T08:02:18;4.00;;;3.15;;
17369;SDS011;8802;52.402;4.920;2023-06-01T08:04:45;4.40;;;3.00;;
17369;SDS011;8802;52.402;4.920;2023-06-01T08:07:13;4.40;;;3.40;;
17369;SDS011;8802;52.402;4.920;2023-06-01T08:09:41;5.28;;;3.72;;
17369;SDS011;8802;52.402;4.920;2023-06-01T08:12:08;5.63;;;3.53;;
17369;SDS011;8802;52.402;4.920;2023-06-01T08:14:36;5.97;;;3.40;;
17369;SDS011;8802;52.402;4.920;2023-06-01T08:17:05;6.13;;;3.50;;
17369;SDS011;8802;52.402;4.920;2023-06-01T08:19:35;4.97;;;3.75;;
17369;SDS011;8802;52.402;4.920;2023-06-01T08:22:02;4.32;;;3.42;;
17369;SDS011;8802;52.402;4.920;2023-06-01T08:24:30;4.60;;;3.28;;
17369;SDS011;8802;52.402;4.920;2023-06-01T08:26:58;4.25;;;3.58;;
17369;SDS011;8802;52.402;4.920;2023-06-01T08:29:25;4.50;;;3.20;;
17369;SDS011;8802;52.402;4.920;2023-06-01T08:31:53;3.78;;;3.45;;
17369;SDS011;8802;52.402;4.920;2023-06-01T08:34:24;4.40;;;2.78;;
17369;SDS011;8802;52.402;4.920;2023-06-01T08:36:52;5.65;;;3.42;;
17369;SDS011;8802;52.402;4.920;2023-06-01T08:39:19;6.50;;;3.45;;
17369;SDS011;8802;52.402;4.920;2023-06-01T08:41:50;5.25;;;3.17;;
17369;SDS011;8802;52.402;4.920;2023-06-01T08:44:32;5.10;;;3.40;;
17369;SDS011;8802;52.402;4.920;2023-06-01T08:47:02;4.50;;;3.30;;
17369;SDS011;8802;52.402;4.920;2023-06-01T08:49:31;5.30;;;3.45;;
17369;SDS011;8802;52.402;4.920;2023-06-01T08:52:01;7.43;;;3.70;;
17369;SDS011;8802;52.402;4.920;2023-06-01T08:54:32;5.97;;;3.63;;
17369;SDS011;8802;52.402;4.920;2023-06-01T08:57:00;5.35;;;3.38;;
17369;SDS011;8802;52.402;4.920;2023-06-01T08:59:30;6.40;;;3.40;;
17369;SDS011;8802;52.402;4.920;2023-06-01T09:01:58;5.53;;;2.80;;
17369;SDS011;8802;52.402;4.920;2023-06-01T09:04:25;5.80;;;3.10;;
17369;SDS011;8802;52.402;4.920;2023-06-01T09:06:52;5.50;;;3.72;;
17369;SDS011;8802;52.402;4.920;2023-06-01T09:09:21;6.13;;;3.28;;
17369;SDS011;8802;52.402;4.920;2023-06-01T09:11:48;5.28;;;3.63;;
17369;SDS011;8802;52.402;4.920;2023-06-01T09:14:45;5.50;;;3.40;;
17369;SDS011;8802;52.402;4.920;2023-06-01T09:17:12;6.32;;;3.85;;
17369;SDS011;8802;52.402;4.920;2023-06-01T09:19:40;6.25;;;3.83;;
17369;SDS011;8802;52.402;4.920;2023-06-01T09:22:08;6.75;;;3.80;;
17369;SDS011;8802;52.402;4.920;2023-06-01T09:24:37;6.10;;;3.58;;
17369;SDS011;8802;52.402;4.920;2023-06-01T09:27:06;5.45;;;3.58;;
17369;SDS011;8802;52.402;4.920;2023-06-01T09:29:33;7.30;;;3.65;;
17369;SDS011;8802;52.402;4.920;2023-06-01T09:32:00;5.85;;;3.83;;
17369;SDS011;8802;52.402;4.920;2023-06-01T09:34:27;4.35;;;3.15;;
17369;SDS011;8802;52.402;4.920;2023-06-01T09:36:55;6.22;;;3.40;;
17369;SDS011;8802;52.402;4.920;2023-06-01T09:39:23;8.73;;;4.07;;
17369;SDS011;8802;52.402;4.920;2023-06-01T09:41:53;7.03;;;3.70;;
17369;SDS011;8802;52.402;4.920;2023-06-01T09:44:27;4.93;;;3.13;;
17369;SDS011;8802;52.402;4.920;2023-06-01T09:46:56;6.43;;;3.60;;
17369;SDS011;8802;52.402;4.920;2023-06-01T09:49:25;6.75;;;3.83;;
17369;SDS011;8802;52.402;4.920;2023-06-01T09:51:53;6.95;;;3.83;;
17369;SDS011;8802;52.402;4.920;2023-06-01T09:54:34;6.88;;;3.72;;
17369;SDS011;8802;52.402;4.920;2023-06-01T09:57:05;8.38;;;3.70;;
17369;SDS011;8802;52.402;4.920;2023-06-01T09:59:37;4.43;;;3.40;;
17369;SDS011;8802;52.402;4.920;2023-06-01T10:02:05;5.50;;;3.45;;
17369;SDS011;8802;52.402;4.920;2023-06-01T10:04:33;7.70;;;3.35;;
17369;SDS011;8802;52.402;4.920;2023-06-01T10:07:04;5.93;;;3.33;;
17369;SDS011;8802;52.402;4.920;2023-06-01T10:09:32;7.82;;;3.92;;
17369;SDS011;8802;52.402;4.920;2023-06-01T10:12:07;4.88;;;3.50;;
17369;SDS011;8802;52.402;4.920;2023-06-01T10:14:36;7.88;;;4.07;;
17369;SDS011;8802;52.402;4.920;2023-06-01T10:17:04;5.63;;;3.55;;
17369;SDS011;8802;52.402;4.920;2023-06-01T10:19:32;4.55;;;3.28;;
17369;SDS011;8802;52.402;4.920;2023-06-01T10:22:01;5.85;;;3.80;;
17369;SDS011;8802;52.402;4.920;2023-06-01T10:24:29;6.25;;;3.17;;
17369;SDS011;8802;52.402;4.920;2023-06-01T10:26:58;5.72;;;3.63;;
17369;SDS011;8802;52.402;4.920;2023-06-01T10:29:32;6.22;;;3.15;;
17369;SDS011;8802;52.402;4.920;2023-06-01T10:31:59;5.85;;;3.20;;
17369;SDS011;8802;52.402;4.920;2023-06-01T10:34:36;6.28;;;3.30;;
17369;SDS011;8802;52.402;4.920;2023-06-01T10:37:14;5.65;;;2.70;;
17369;SDS011;8802;52.402;4.920;2023-06-01T10:39:42;6.80;;;3.40;;
17369;SDS011;8802;52.402;4.920;2023-06-01T10:42:34;4.90;;;3.10;;
17369;SDS011;8802;52.402;4.920;2023-06-01T10:45:05;4.65;;;2.85;;
17369;SDS011;8802;52.402;4.920;2023-06-01T10:47:46;5.90;;;2.85;;
17369;SDS011;8802;52.402;4.920;2023-06-01T10:50:14;3.83;;;2.70;;
17369;SDS011;8802;52.402;4.920;2023-06-01T10:52:42;5.53;;;3.10;;
17369;SDS011;8802;52.402;4.920;2023-06-01T10:55:19;4.43;;;2.80;;
17369;SDS011;8802;52.402;4.920;2023-06-01T10:57:47;4.85;;;2.47;;
17369;SDS011;8802;52.402;4.920;2023-06-01T11:00:17;3.67;;;1.92;;
17369;SDS011;8802;52.402;4.920;2023-06-01T11:02:49;3.85;;;2.00;;
17369;SDS011;8802;52.402;4.920;2023-06-01T11:05:35;3.10;;;1.80;;
17369;SDS011;8802;52.402;4.920;2023-06-01T11:11:20;3.65;;;1.70;;
17369;SDS011;8802;52.402;4.920;2023-06-01T11:16:35;2.80;;;1.70;;
17369;SDS011;8802;52.402;4.920;2023-06-01T11:19:02;2.83;;;1.85;;
17369;SDS011;8802;52.402;4.920;2023-06-01T11:21:32;4.10;;;2.00;;
17369;SDS011;8802;52.402;4.920;2023-06-01T11:24:03;2.75;;;2.25;;
17369;SDS011;8802;52.402;4.920;2023-06-01T11:26:34;3.75;;;2.15;;
17369;SDS011;8802;52.402;4.920;2023-06-01T11:29:03;2.28;;;2.00;;
17369;SDS011;8802;52.402;4.920;2023-06-01T11:31:36;3.55;;;2.15;;
17369;SDS011;8802;52.402;4.920;2023-06-01T11:34:05;2.40;;;2.20;;
17369;SDS011;8802;52.402;4.920;2023-06-01T11:36:37;3.30;;;2.28;;
17369;SDS011;8802;52.402;4.920;2023-06-01T11:39:05;2.95;;;2.10;;
17369;SDS011;8802;52.402;4.920;2023-06-01T11:41:42;4.10;;;2.22;;
17369;SDS011;8802;52.402;4.920;2023-06-01T11:44:09;4.20;;;2.10;;
17369;SDS011;8802;52.402;4.920;2023-06-01T11:46:37;2.53;;;1.95;;
17369;SDS011;8802;52.402;4.920;2023-06-01T11:49:16;2.10;;;1.67;;
17369;SDS011;8802;52.402;4.920;2023-06-01T11:51:43;3.88;;;2.08;;
17369;SDS011;8802;52.402;4.920;2023-06-01T11:54:11;3.05;;;1.88;;
17369;SDS011;8802;52.402;4.920;2023-06-01T11:56:38;2.78;;;1.70;;
17369;SDS011;8802;52.402;4.920;2023-06-01T11:59:05;2.00;;;1.42;;
17369;SDS011;8802;52.402;4.920;2023-06-01T12:01:34;3.90;;;1.80;;
17369;SDS011;8802;52.402;4.920;2023-06-01T12:04:05;2.33;;;1.60;;
17369;SDS011;8802;52.402;4.920;2023-06-01T12:06:32;2.08;;;1.35;;
17369;SDS011;8802;52.402;4.920;2023-06-01T12:09:01;2.58;;;1.30;;
17369;SDS011;8802;52.402;4.920;2023-06-01T12:11:29;2.40;;;1.08;;
17369;SDS011;8802;52.402;4.920;2023-06-01T12:13:56;1.50;;;1.10;;
17369;SDS011;8802;52.402;4.920;2023-06-01T12:16:24;2.30;;;1.42;;
17369;SDS011;8802;52.402;4.920;2023-06-01T12:19:14;3.03;;;1.45;;
17369;SDS011;8802;52.402;4.920;2023-06-01T12:21:46;2.08;;;1.60;;
17369;SDS011;8802;52.402;4.920;2023-06-01T12:24:14;4.00;;;1.60;;
17369;SDS011;8802;52.402;4.920;2023-06-01T12:26:41;2.08;;;1.30;;
17369;SDS011;8802;52.402;4.920;2023-06-01T12:29:08;2.65;;;1.27;;
17369;SDS011;8802;52.402;4.920;2023-06-01T12:31:35;2.95;;;1.30;;
17369;SDS011;8802;52.402;4.920;2023-06-01T12:34:02;2.05;;;1.05;;
17369;SDS011;8802;52.402;4.920;2023-06-01T12:36:31;1.63;;;1.17;;
17369;SDS011;8802;52.402;4.920;2023-06-01T12:38:59;2.90;;;1.13;;
17369;SDS011;8802;52.402;4.920;2023-06-01T12:41:28;1.98;;;1.05;;
17369;SDS011;8802;52.402;4.920;2023-06-01T12:43:56;2.45;;;0.80;;
17369;SDS011;8802;52.402;4.920;2023-06-01T12:46:24;1.02;;;0.63;;
17369;SDS011;8802;52.402;4.920;2023-06-01T12:48:52;2.15;;;0.90;;
17369;SDS011;8802;52.402;4.920;2023-06-01T12:51:20;2.92;;;0.93;;
17369;SDS011;8802;52.402;4.920;2023-06-01T12:53:49;1.08;;;0.93;;
17369;SDS011;8802;52.402;4.920;2023-06-01T12:56:16;1.20;;;0.90;;
17369;SDS011;8802;52.402;4.920;2023-06-01T12:58:43;1.83;;;1.23;;
17369;SDS011;8802;52.402;4.920;2023-06-01T13:01:10;3.13;;;1.10;;
17369;SDS011;8802;52.402;4.920;2023-06-01T13:03:37;2.22;;;1.40;;
17369;SDS011;8802;52.402;4.920;2023-06-01T13:06:04;2.15;;;1.23;;
17369;SDS011;8802;52.402;4.920;2023-06-01T13:08:32;2.33;;;1.10;;
17369;SDS011;8802;52.402;4.920;2023-06-01T13:11:00;1.67;;;1.20;;
17369;SDS011;8802;52.402;4.920;2023-06-01T13:13:27;2.40;;;1.10;;
17369;SDS011;8802;52.402;4.920;2023-06-01T13:15:54;2.17;;;1.23;;
17369;SDS011;8802;52.402;4.920;2023-06-01T13:18:21;3.55;;;1.20;;
17369;SDS011;8802;52.402;4.920;2023-06-01T13:20:48;1.52;;;1.30;;
17369;SDS011;8802;52.402;4.920;2023-06-01T13:23:15;2.17;;;1.20;;
17369;SDS011;8802;52.402;4.920;2023-06-01T13:25:43;1.77;;;1.10;;
17369;SDS011;8802;52.402;4.920;2023-06-01T13:28:11;2.42;;;1.20;;
17369;SDS011;8802;52.402;4.920;2023-06-01T13:30:38;1.95;;;1.25;;
17369;SDS011;8802;52.402;4.920;2023-06-01T13:33:05;2.00;;;1.40;;
17369;SDS011;8802;52.402;4.920;2023-06-01T13:35:32;4.13;;;1.58;;
17369;SDS011;8802;52.402;4.920;2023-06-01T13:37:59;2.25;;;1.95;;
17369;SDS011;8802;52.402;4.920;2023-06-01T13:40:26;3.50;;;1.63;;
17369;SDS011;8802;52.402;4.920;2023-06-01T13:42:53;4.20;;;2.00;;
17369;SDS011;8802;52.402;4.920;2023-06-01T13:45:22;5.10;;;2.17;;
17369;SDS011;8802;52.402;4.920;2023-06-01T13:47:49;5.53;;;2.13;;
17369;SDS011;8802;52.402;4.920;2023-06-01T13:50:16;7.22;;;2.60;;
17369;SDS011;8802;52.402;4.920;2023-06-01T13:52:44;3.97;;;2.08;;
17369;SDS011;8802;52.402;4.920;2023-06-01T13:55:11;4.90;;;2.30;;
17369;SDS011;8802;52.402;4.920;2023-06-01T13:57:39;5.70;;;2.25;;
17369;SDS011;8802;52.402;4.920;2023-06-01T14:00:07;4.70;;;2.22;;
17369;SDS011;8802;52.402;4.920;2023-06-01T14:02:37;4.25;;;2.15;;
17369;SDS011;8802;52.402;4.920;2023-06-01T14:05:04;2.30;;;1.88;;
17369;SDS011;8802;52.402;4.920;2023-06-01T14:07:33;5.82;;;2.22;;
17369;SDS011;8802;52.402;4.920;2023-06-01T14:10:00;3.78;;;2.00;;
17369;SDS011;8802;52.402;4.920;2023-06-01T14:12:27;3.42;;;1.85;;
17369;SDS011;8802;52.402;4.920;2023-06-01T14:14:55;5.53;;;2.40;;
17369;SDS011;8802;52.402;4.920;2023-06-01T14:17:22;5.43;;;2.13;;
17369;SDS011;8802;52.402;4.920;2023-06-01T14:19:50;2.28;;;1.77;;
17369;SDS011;8802;52.402;4.920;2023-06-01T14:22:17;6.05;;;2.22;;
17369;SDS011;8802;52.402;4.920;2023-06-01T14:24:44;2.67;;;1.80;;
17369;SDS011;8802;52.402;4.920;2023-06-01T14:27:11;2.78;;;1.80;;
17369;SDS011;8802;52.402;4.920;2023-06-01T14:29:38;2.80;;;1.60;;
17369;SDS011;8802;52.402;4.920;2023-06-01T14:32:05;2.95;;;1.80;;
17369;SDS011;8802;52.402;4.920;2023-06-01T14:34:33;1.92;;;1.20;;
17369;SDS011;8802;52.402;4.920;2023-06-01T14:37:01;2.80;;;1.65;;
17369;SDS011;8802;52.402;4.920;2023-06-01T14:39:29;3.08;;;1.42;;
17369;SDS011;8802;52.402;4.920;2023-06-01T14:41:56;3.47;;;2.30;;
17369;SDS011;8802;52.402;4.920;2023-06-01T14:44:23;2.78;;;1.55;;
17369;SDS011;8802;52.402;4.920;2023-06-01T14:46:50;3.90;;;1.80;;
17369;SDS011;8802;52.402;4.920;2023-06-01T14:49:17;2.28;;;1.45;;
17369;SDS011;8802;52.402;4.920;2023-06-01T14:51:44;3.45;;;1.70;;
17369;SDS011;8802;52.402;4.920;2023-06-01T14:54:13;3.17;;;1.52;;
17369;SDS011;8802;52.402;4.920;2023-06-01T14:56:41;3.78;;;1.75;;
17369;SDS011;8802;52.402;4.920;2023-06-01T14:59:08;2.85;;;1.50;;
17369;SDS011;8802;52.402;4.920;2023-06-01T15:01:35;2.22;;;1.67;;
17369;SDS011;8802;52.402;4.920;2023-06-01T15:04:02;3.38;;;1.40;;
17369;SDS011;8802;52.402;4.920;2023-06-01T15:06:29;2.60;;;1.90;;
17369;SDS011;8802;52.402;4.920;2023-06-01T15:08:56;3.13;;;1.58;;
17369;SDS011;8802;52.402;4.920;2023-06-01T15:11:24;5.90;;;1.90;;
17369;SDS011;8802;52.402;4.920;2023-06-01T15:13:52;3.13;;;1.73;;